Latest Weather Observations for Lombadina

IDW60801

Issued at 11:32 pm WST Monday 22 December 2014 (issued every 30 minutes, with the page automatically refreshed every 10 minutes)

About weather observations | Map of weather stations | Latest weather observations for WA | Other Formats
Station Details ID: 503016 Name: LOMBADINA AIRSTRIP Lat: -16.52 Lon: 122.92 Height: 42.0 m
Data from the previous 72 hours. | See also: Recent months for locations in Western Australia
Date/Time
WST
Temp
°C
App
Temp
°C
Dew
Point
Rel
Hum
%
Delta-T
°C
Wind Press
QNH
hPa
Press
MSL
hPa
Rain
since 9 am
mm
Dir
 
Spd
km/h
Gust
km/h
Spd
kts
Gust
kts
22/11:30pm 27.8 34.4 25.3 86 1.8 CALM 0 0 0 0 1007.5 1007.1 1.4
22/11:00pm 28.0 34.7 25.4 86 1.8 CALM 0 0 0 0 1007.9 1007.5 1.4
22/10:30pm 28.3 35.1 25.5 85 2.0 CALM 0 0 0 0 1008.1 1007.7 1.4
22/10:00pm 28.3 34.9 25.3 84 2.1 CALM 0 0 0 0 1008.2 1007.8 1.4
22/09:30pm 28.7 35.4 25.4 82 2.3 CALM 0 0 0 0 1007.9 1007.5 1.4
22/09:00pm 29.1 35.6 25.1 79 2.8 CALM 0 0 0 0 1007.8 1007.4 1.4
22/08:30pm 29.3 35.5 24.6 76 3.3 CALM 0 0 0 0 1007.6 1007.2 1.4
22/08:00pm 29.1 35.5 24.9 78 3.0 CALM 0 0 0 0 1007.3 1006.9 1.4
22/07:30pm 29.3 35.7 24.9 77 3.1 CALM 0 0 0 0 1007.0 1006.6 1.4
22/07:00pm 29.5 35.7 24.6 75 3.4 CALM 0 0 0 0 1006.8 1006.4 1.4
22/06:30pm 29.7 35.6 25.3 77 3.1 W 4 9 2 5 1006.4 1006.0 1.4
22/06:00pm 30.1 35.6 25.6 77 3.2 W 7 19 4 10 1006.1 1005.7 1.4
22/05:30pm 30.8 36.1 25.3 72 3.9 WNW 7 17 4 9 1005.7 1005.3 1.4
22/05:00pm 31.3 36.9 25.7 72 4.0 WNW 7 17 4 9 1005.7 1005.3 1.4
22/04:30pm 31.3 37.1 26.0 73 3.8 WNW 7 17 4 9 1005.5 1005.1 1.4
22/04:00pm 31.8 36.9 25.6 69 4.4 NW 9 17 5 9 1005.5 1005.1 1.4
22/03:30pm 31.8 36.4 24.8 66 4.9 NW 9 22 5 12 1006.1 1005.7 1.4
22/03:00pm 32.6 37.1 25.2 65 5.3 NW 11 20 6 11 1005.8 1005.4 1.4
22/02:30pm 32.4 36.6 24.8 64 5.4 NW 11 19 6 10 1006.0 1005.6 1.4
22/02:00pm 33.2 37.9 24.9 61 5.9 NW 9 20 5 11 1006.3 1005.9 1.4
22/01:30pm 32.7 36.5 24.7 62 5.6 NNW 13 20 7 11 1006.5 1006.1 1.4
22/01:00pm 33.7 39.2 24.7 59 6.4 N 4 15 2 8 1006.7 1006.3 1.4
22/12:30pm 33.2 38.5 24.3 59 6.2 N 4 9 2 5 1007.1 1006.7 1.4
22/12:00pm 32.8 37.4 23.2 57 6.7 NNE 4 13 2 7 1007.6 1007.2 1.4
22/11:30am 33.0 37.6 23.1 56 6.8 SSE 4 13 2 7 1008.2 1007.8 1.4
22/11:00am 32.1 37.9 26.1 70 4.3 ESE 7 17 4 9 1008.8 1008.4 1.4
22/10:30am 29.1 36.2 26.6 86 1.8 NNE 2 11 1 6 1009.3 1008.9 1.4
22/10:00am 28.9 35.0 26.2 85 1.9 ENE 6 9 3 5 1009.7 1009.3 1.0
22/09:30am 31.2 36.2 24.5 67 4.7 S 6 13 3 7 1009.7 1009.3 0.0
22/09:00am 31.1 36.4 25.3 71 4.1 SE 7 17 4 9 1009.8 1009.4 0.0
22/08:30am 30.8 35.8 24.8 70 4.2 SSE 7 13 4 7 1009.7 1009.3 0.0
22/08:00am 30.1 35.2 24.9 73 3.7 SSE 7 17 4 9 1009.3 1008.9 0.0
22/07:30am 29.7 35.0 25.3 77 3.1 SSE 7 13 4 7 1009.2 1008.8 0.0
22/07:00am 28.9 34.6 25.0 79 2.7 SSE 4 11 2 6 1008.8 1008.4 0.0
22/06:30am 28.1 34.7 25.3 85 2.0 CALM 0 0 0 0 1008.5 1008.1 0.0
22/06:00am 27.5 33.7 25.2 87 1.6 S 2 11 1 6 1008.3 1007.9 0.0
22/05:30am 27.2 33.1 25.4 90 1.3 SSE 4 13 2 7 1008.0 1007.6 0.0
22/05:00am 26.2 32.8 25.2 94 0.7 CALM 0 0 0 0 1007.6 1007.2 0.0
22/04:30am 26.6 33.1 25.1 91 1.0 CALM 0 0 0 0 1007.2 1006.8 0.0
22/04:00am 26.6 33.0 24.9 90 1.2 CALM 0 0 0 0 1007.0 1006.6 0.0
22/03:30am 26.9 33.4 25.1 90 1.3 CALM 0 0 0 0 1006.9 1006.5 0.0
22/03:00am 27.0 33.5 25.1 89 1.3 CALM 0 0 0 0 1007.0 1006.6 0.0
22/02:30am 27.1 33.7 25.2 89 1.3 CALM 0 0 0 0 1007.0 1006.6 0.0
22/02:00am 27.1 33.7 25.2 89 1.3 CALM 0 0 0 0 1006.8 1006.4 0.0
22/01:30am 27.3 33.6 24.8 86 1.7 CALM 0 0 0 0 1006.4 1006.0 0.0
22/01:00am 27.6 34.0 24.9 85 1.9 CALM 0 0 0 0 1006.4 1006.0 0.0
22/12:30am 27.9 34.2 24.7 83 2.2 CALM 0 0 0 0 1006.6 1006.2 0.0
22/12:00am 28.2 33.9 25.0 83 2.2 W 4 13 2 7 1007.1 1006.7 0.0
 
Date/Time
WST
Temp
°C
App
Temp
°C
Dew
Point
Rel
Hum
%
Delta-T
°C
Wind Press
QNH
hPa
Press
MSL
hPa
Rain
since 9 am
mm
Dir
 
Spd
km/h
Gust
km/h
Spd
kts
Gust
kts
21/11:30pm 27.8 34.7 25.7 88 1.5 CALM 0 0 0 0 1007.3 1006.9 0.0
21/11:00pm 28.6 35.6 25.9 85 1.9 CALM 0 0 0 0 1007.3 1006.9 0.0
21/10:30pm 28.5 35.7 26.1 87 1.7 CALM 0 0 0 0 1007.5 1007.1 0.0
21/10:00pm 28.7 35.6 25.7 84 2.1 CALM 0 0 0 0 1007.6 1007.2 0.0
21/09:30pm 28.7 35.5 25.6 83 2.2 CALM 0 0 0 0 1007.6 1007.2 0.0
21/09:00pm 28.8 35.5 25.4 82 2.4 CALM 0 0 0 0 1007.3 1006.9 0.0
21/08:30pm 29.1 35.9 25.5 81 2.5 CALM 0 0 0 0 1007.2 1006.8 0.0
21/08:00pm 29.4 36.2 25.6 80 2.7 CALM 0 0 0 0 1006.9 1006.5 0.0
21/07:30pm 29.4 36.1 25.4 79 2.8 CALM 0 0 0 0 1006.8 1006.4 0.0
21/07:00pm 29.6 36.5 25.7 79 2.8 CALM 0 0 0 0 1006.7 1006.3 0.0
21/06:30pm 30.0 36.9 25.7 78 3.1 CALM 0 0 0 0 1006.4 1006.0 0.0
21/06:00pm 30.5 35.9 25.5 74 3.5 W 7 19 4 10 1006.1 1005.7 0.0
21/05:30pm 31.2 37.0 26.0 74 3.7 W 7 19 4 10 1005.9 1005.5 0.0
21/05:00pm 31.9 37.1 25.7 69 4.4 WSW 9 19 5 10 1005.5 1005.1 0.0
21/04:30pm 32.4 37.5 25.5 67 4.9 W 9 19 5 10 1005.2 1004.8 0.0
21/04:00pm 32.0 37.1 25.0 66 5.0 WNW 7 19 4 10 1005.4 1005.0 0.0
21/03:30pm 32.0 36.0 25.1 67 4.9 WNW 13 24 7 13 1005.3 1004.9 0.0
21/03:00pm 33.2 37.0 24.1 59 6.4 NW 11 22 6 12 1005.4 1005.0 0.0
21/02:30pm 32.6 37.6 23.2 57 6.5 SE 2 9 1 5 1005.7 1005.3 0.0
21/02:00pm 33.2 38.6 24.5 60 6.1 NE 4 13 2 7 1006.3 1005.9 0.0
21/01:30pm 32.9 37.5 24.8 62 5.7 N 9 20 5 11 1006.6 1006.2 0.0
21/01:00pm 34.2 39.6 25.5 60 6.2 W 7 19 4 10 1006.8 1006.4 0.0
21/12:30pm 33.8 39.1 24.4 58 6.6 WNW 4 15 2 8 1007.4 1007.0 0.0
21/12:00pm 33.8 38.1 22.6 52 7.7 S 4 13 2 7 1008.0 1007.6 0.0
21/11:30am 32.5 37.0 23.6 59 6.2 S 6 13 3 7 1008.5 1008.1 0.0
21/11:00am 32.6 36.4 23.5 58 6.3 SW 9 17 5 9 1008.8 1008.4 0.0
21/10:30am 31.8 36.4 23.8 62 5.6 SW 6 15 3 8 1009.2 1008.8 0.0
21/10:00am 30.7 35.9 24.2 68 4.5 SSW 4 13 2 7 1009.5 1009.1 0.0
21/09:30am 29.8 36.4 25.3 77 3.2 CALM 0 0 0 0 1009.8 1009.4 0.0
21/09:00am 29.2 35.5 24.8 77 3.1 CALM 0 0 0 0 1009.9 1009.5 1.0
21/08:30am 29.0 35.3 24.8 78 2.9 CALM 0 0 0 0 1009.9 1009.5 1.0
21/08:00am 28.6 35.1 25.0 81 2.5 CALM 0 0 0 0 1009.7 1009.3 1.0
21/07:30am 28.6 35.1 25.6 84 2.1 SW 2 11 1 6 1009.3 1008.9 1.0
21/07:00am 28.4 35.2 25.6 85 2.0 CALM 0 0 0 0 1009.0 1008.6 1.0
21/06:30am 27.3 34.1 25.5 90 1.3 CALM 0 0 0 0 1009.1 1008.7 1.0
21/06:00am 26.7 33.4 25.4 93 0.9 CALM 0 0 0 0 1008.7 1008.3 1.0
21/05:30am 25.7 31.8 24.5 93 0.8 CALM 0 0 0 0 1008.3 1007.9 1.0
21/05:00am 25.8 32.0 24.6 93 0.8 CALM 0 0 0 0 1007.9 1007.5 1.0
21/04:30am 26.0 32.3 24.8 93 0.8 CALM 0 0 0 0 1007.5 1007.1 1.0
21/04:00am 25.9 32.4 25.0 95 0.6 CALM 0 0 0 0 1007.4 1007.0 1.0
21/03:30am 26.1 32.4 24.8 92 0.9 CALM 0 0 0 0 1007.3 1006.9 1.0
21/03:00am 26.2 32.4 24.6 91 1.1 CALM 0 0 0 0 1007.2 1006.8 1.0
21/02:30am 26.4 32.5 24.4 89 1.4 CALM 0 0 0 0 1007.4 1007.0 1.0
21/02:00am 25.9 31.8 24.1 90 1.2 CALM 0 0 0 0 1007.4 1007.0 1.0
21/01:30am 26.1 32.2 24.5 91 1.1 CALM 0 0 0 0 1007.4 1007.0 1.0
21/01:00am 26.0 32.5 25.1 95 0.6 CALM 0 0 0 0 1007.8 1007.4 1.0
21/12:30am 26.4 33.0 25.3 94 0.8 CALM 0 0 0 0 1008.2 1007.8 1.0
21/12:00am 26.4 33.1 25.4 94 0.7 CALM 0 0 0 0 1008.6 1008.2 1.0
 
Date/Time
WST
Temp
°C
App
Temp
°C
Dew
Point
Rel
Hum
%
Delta-T
°C
Wind Press
QNH
hPa
Press
MSL
hPa
Rain
since 9 am
mm
Dir
 
Spd
km/h
Gust
km/h
Spd
kts
Gust
kts
20/11:30pm 26.3 32.8 25.1 93 0.8 CALM 0 0 0 0 1008.8 1008.4 1.0
20/11:00pm 26.6 33.1 25.1 91 1.1 CALM 0 0 0 0 1008.8 1008.4 1.0
20/10:30pm 26.8 33.4 25.3 91 1.1 CALM 0 0 0 0 1008.9 1008.5 1.0
20/10:00pm 27.1 33.6 25.1 89 1.4 CALM 0 0 0 0 1009.0 1008.6 1.0
20/09:30pm 26.7 33.3 25.3 92 1.0 CALM 0 0 0 0 1009.0 1008.6 1.0
20/09:00pm 26.5 33.0 25.0 91 1.0 CALM 0 0 0 0 1008.8 1008.4 1.0
20/08:30pm 26.3 32.8 25.0 92 0.9 CALM 0 0 0 0 1008.3 1007.9 1.0
20/08:00pm 26.5 32.9 24.9 91 1.1 CALM 0 0 0 0 1008.1 1007.7 1.0
20/07:30pm 26.8 33.4 25.3 91 1.1 CALM 0 0 0 0 1007.7 1007.3 1.0
20/07:00pm 26.9 33.5 25.2 90 1.2 CALM 0 0 0 0 1007.2 1006.8 1.0
20/06:30pm 26.8 33.3 25.1 90 1.2 CALM 0 0 0 0 1006.8 1006.4 1.0
20/06:00pm 27.1 33.6 25.0 88 1.5 CALM 0 0 0 0 1006.5 1006.1 1.0
20/05:30pm 27.3 33.8 25.0 87 1.6 CALM 0 0 0 0 1006.0 1005.6 1.0
20/05:00pm 27.5 33.7 24.6 84 2.0 CALM 0 0 0 0 1005.9 1005.5 1.0
20/04:30pm 27.2 33.3 24.5 85 1.9 CALM 0 0 0 0 1006.2 1005.8 1.0
20/04:00pm 26.5 32.8 24.8 90 1.2 CALM 0 0 0 0 1006.6 1006.2 1.0
20/03:30pm 26.6 33.0 24.9 90 1.2 CALM 0 0 0 0 1007.4 1007.0 1.0
20/03:00pm 26.3 32.8 25.0 92 0.9 CALM 0 0 0 0 1007.8 1007.4 1.0
20/02:30pm 25.0 30.3 23.1 89 1.3 CALM 0 0 0 0 1008.5 1008.1 1.0
20/02:00pm 24.6 29.0 21.4 82 2.1 CALM 0 4 0 2 1009.0 1008.6 1.0
20/01:30pm 24.9 27.9 22.0 84 1.9 SSE 9 24 5 13 1009.0 1008.6 1.0
20/01:00pm 24.5 27.3 22.3 87 1.5 SE 11 24 6 13 1010.1 1009.7 1.0
20/12:30pm 22.4 25.2 21.5 95 0.6 S 9 22 5 12 1010.2 1009.8 1.0
20/12:00pm 23.7 24.8 22.0 90 1.1 SE 19 37 10 20 1010.4 1010.0 0.2
20/11:30am 27.9 31.4 23.5 77 3.0 SSE 11 26 6 14 1009.2 1008.8 0.0
20/11:00am 31.8 36.3 25.8 70 4.3 E 13 24 7 13 1009.8 1009.4 0.0
20/10:30am 33.6 38.1 25.8 63 5.6 E 13 24 7 13 1009.4 1009.0 0.0
20/10:00am 34.0 38.2 25.9 62 5.8 E 15 26 8 14 1010.1 1009.7 0.0
20/09:30am 34.2 39.7 24.1 55 7.1 S 2 15 1 8 1010.0 1009.6 0.0
20/09:00am 33.5 38.4 23.7 56 6.8 SW 4 11 2 6 1010.4 1010.0 0.0
20/08:30am 32.5 37.9 25.4 66 5.0 SW 7 15 4 8 1010.3 1009.9 0.0
20/08:00am 31.3 37.5 26.4 75 3.5 SW 6 15 3 8 1010.1 1009.7 0.0
20/07:30am 29.9 35.8 26.2 80 2.6 SW 7 17 4 9 1010.2 1009.8 0.0
20/07:00am 29.5 35.7 26.6 84 2.1 SSW 7 15 4 8 1010.4 1010.0 0.0
20/06:30am 29.1 34.8 26.5 86 1.9 SW 9 17 5 9 1009.8 1009.4 0.0
20/06:00am 28.3 34.6 26.5 90 1.3 SW 6 13 3 7 1009.4 1009.0 0.0
20/05:30am 27.9 34.5 26.4 91 1.1 SW 4 11 2 6 1008.9 1008.5 0.0
20/05:00am 27.5 33.9 26.6 95 0.6 SW 6 11 3 6 1008.5 1008.1 0.0
20/04:30am 27.2 34.5 26.3 95 0.6 CALM 0 0 0 0 1008.3 1007.9 0.0
20/04:00am 27.3 34.2 25.7 91 1.1 CALM 0 0 0 0 1008.2 1007.8 0.0
20/03:30am 27.7 34.6 25.7 89 1.4 CALM 0 0 0 0 1008.1 1007.7 0.0
20/03:00am 28.0 34.9 25.7 87 1.6 CALM 0 0 0 0 1008.2 1007.8 0.0
20/02:30am 28.6 35.6 25.8 85 2.0 CALM 0 0 0 0 1008.3 1007.9 0.0
20/02:00am 28.7 35.7 25.9 85 2.0 CALM 0 0 0 0 1008.5 1008.1 0.0
20/01:30am 28.7 35.7 25.8 84 2.1 CALM 0 0 0 0 1008.4 1008.0 0.0
20/01:00am 28.7 35.8 26.0 85 1.9 CALM 0 0 0 0 1008.7 1008.3 0.0
20/12:30am 28.9 36.1 26.1 85 2.0 CALM 0 0 0 0 1009.1 1008.7 0.0
20/12:00am 29.0 36.1 26.0 84 2.1 CALM 0 0 0 0 1009.6 1009.2 0.0

Other Formats:

Comma delimited format used in spreadsheet applications
http://www.bom.gov.au/fwo/IDW60801/IDW60801.99206.axf

JavaScript Object Notation format (JSON) in row-major order
http://www.bom.gov.au/fwo/IDW60801/IDW60801.99206.json